Time;durP1;ratioP1;P1;durP2;ratioP2;P2;SDS_P1;SDS_P2;PMS_P1;PMS_P2;Temp;Humidity;BMP_temperature;BMP_pressure;BME280_temperature;BME280_humidity;BME280_pressure;Samples;Min_cycle;Max_cycle;Signal;HPM_P1;HPM_P2
2023/07/18 00:02:07;;;;;;;6.70;2.97;;;;;;;;;;5075092;28;20033;-32
2023/07/18 00:04:34;;;;;;;4.53;3.08;;;;;;;;;;5074858;28;20116;-28
2023/07/18 00:07:00;;;;;;;6.75;3.33;;;;;;;;;;5074986;28;20024;-29
2023/07/18 00:09:26;;;;;;;4.93;2.90;;;;;;;;;;5075134;28;20332;-32
2023/07/18 00:11:53;;;;;;;5.50;3.17;;;;;;;;;;5074802;28;20021;-29
2023/07/18 00:14:19;;;;;;;9.20;4.53;;;;;;;;;;5074941;28;20371;-31
2023/07/18 00:16:45;;;;;;;5.20;3.28;;;;;;;;;;5074917;28;20052;-29
2023/07/18 00:19:12;;;;;;;4.60;2.20;;;;;;;;;;5075137;28;20029;-26
2023/07/18 00:21:41;;;;;;;4.40;2.55;;;;;;;;;;5074998;28;20073;-29
2023/07/18 00:24:07;;;;;;;6.97;2.60;;;;;;;;;;5075097;28;20067;-28
2023/07/18 00:26:34;;;;;;;3.88;2.92;;;;;;;;;;5074992;28;20024;-29
2023/07/18 00:29:00;;;;;;;5.88;3.55;;;;;;;;;;5074629;28;20028;-29
2023/07/18 00:31:27;;;;;;;3.72;2.42;;;;;;;;;;5075235;28;20479;-29
2023/07/18 00:33:53;;;;;;;3.05;2.25;;;;;;;;;;5074551;28;20099;-27
2023/07/18 00:36:19;;;;;;;8.23;2.70;;;;;;;;;;5074936;28;20024;-31
2023/07/18 00:38:45;;;;;;;4.75;3.03;;;;;;;;;;5074907;28;20039;-27
2023/07/18 00:41:11;;;;;;;6.40;2.78;;;;;;;;;;5074901;28;20095;-28
2023/07/18 00:43:37;;;;;;;8.75;2.80;;;;;;;;;;5074559;28;20035;-29
2023/07/18 00:46:05;;;;;;;8.15;3.38;;;;;;;;;;5074672;28;20024;-31
2023/07/18 00:48:34;;;;;;;5.25;2.58;;;;;;;;;;5074396;28;20504;-28
2023/07/18 00:51:01;;;;;;;5.82;2.72;;;;;;;;;;5075040;28;20029;-27
2023/07/18 00:53:28;;;;;;;3.70;2.58;;;;;;;;;;5074692;28;20024;-30
2023/07/18 00:55:55;;;;;;;9.57;2.72;;;;;;;;;;5074539;28;20078;-25
2023/07/18 00:58:22;;;;;;;6.45;3.45;;;;;;;;;;5074465;28;20024;-26
2023/07/18 01:00:48;;;;;;;2.45;2.17;;;;;;;;;;5074662;28;20099;-30
2023/07/18 01:03:16;;;;;;;3.03;2.72;;;;;;;;;;5074145;28;20437;-28
2023/07/18 01:05:42;;;;;;;4.53;2.65;;;;;;;;;;5074384;28;20040;-31
2023/07/18 01:08:08;;;;;;;3.60;2.80;;;;;;;;;;5074574;28;20111;-26
2023/07/18 01:10:34;;;;;;;5.10;2.33;;;;;;;;;;5074305;28;20032;-29
2023/07/18 01:13:01;;;;;;;4.95;2.47;;;;;;;;;;5074222;28;20025;-31
2023/07/18 01:15:29;;;;;;;5.78;2.53;;;;;;;;;;5074267;28;20024;-30
2023/07/18 01:17:55;;;;;;;9.63;2.88;;;;;;;;;;5074193;28;20108;-31
2023/07/18 01:20:23;;;;;;;3.30;2.67;;;;;;;;;;5074234;28;20032;-28
2023/07/18 01:22:56;;;;;;;5.03;2.30;;;;;;;;;;5074126;28;20028;-31
2023/07/18 01:25:22;;;;;;;4.57;2.17;;;;;;;;;;5074175;28;20103;-31
2023/07/18 01:27:49;;;;;;;6.82;2.15;;;;;;;;;;5074339;28;20386;-29
2023/07/18 01:30:17;;;;;;;6.43;3.25;;;;;;;;;;5074173;28;20337;-29
2023/07/18 01:32:44;;;;;;;5.47;2.33;;;;;;;;;;5073987;28;20024;-31
2023/07/18 01:35:10;;;;;;;4.68;2.35;;;;;;;;;;5074359;28;20421;-27
2023/07/18 01:37:37;;;;;;;4.70;2.35;;;;;;;;;;5073958;28;20036;-27
2023/07/18 01:40:05;;;;;;;5.22;2.25;;;;;;;;;;5074569;28;20055;-31
2023/07/18 01:42:32;;;;;;;4.53;2.55;;;;;;;;;;5073925;28;20359;-28
2023/07/18 01:44:58;;;;;;;6.88;2.13;;;;;;;;;;5073947;28;20417;-26
2023/07/18 01:47:24;;;;;;;3.22;2.45;;;;;;;;;;5056249;28;20166;-26
2023/07/18 01:49:50;;;;;;;4.40;2.33;;;;;;;;;;5074214;28;20074;-27
2023/07/18 01:52:16;;;;;;;6.60;2.35;;;;;;;;;;5074131;28;20017;-29
2023/07/18 01:54:42;;;;;;;3.13;2.40;;;;;;;;;;5073917;28;20020;-28
2023/07/18 01:57:09;;;;;;;5.05;2.90;;;;;;;;;;5073890;28;20358;-29
2023/07/18 01:59:35;;;;;;;4.47;2.78;;;;;;;;;;5076402;28;20048;-30
2023/07/18 02:02:06;;;;;;;4.53;2.20;;;;;;;;;;5077296;28;20041;-27
2023/07/18 02:04:32;;;;;;;3.88;2.40;;;;;;;;;;5059535;28;20052;-28
2023/07/18 02:06:58;;;;;;;5.53;2.53;;;;;;;;;;5077324;28;20036;-29
2023/07/18 02:09:24;;;;;;;6.35;3.42;;;;;;;;;;5077486;28;20443;-30
2023/07/18 02:11:50;;;;;;;6.10;2.50;;;;;;;;;;5077157;28;20028;-29
2023/07/18 02:14:19;;;;;;;6.82;2.70;;;;;;;;;;5077117;28;20436;-29
2023/07/18 02:16:46;;;;;;;3.10;2.40;;;;;;;;;;5077102;28;20529;-30
2023/07/18 02:19:13;;;;;;;4.28;2.42;;;;;;;;;;5077007;28;20089;-28
2023/07/18 02:21:39;;;;;;;8.80;2.92;;;;;;;;;;5077303;28;20421;-33
2023/07/18 02:24:05;;;;;;;7.03;3.20;;;;;;;;;;5077718;28;20052;-30
2023/07/18 02:26:31;;;;;;;4.78;2.30;;;;;;;;;;5077228;28;20086;-29
2023/07/18 02:28:57;;;;;;;2.70;2.35;;;;;;;;;;5077136;28;20104;-25
2023/07/18 02:31:23;;;;;;;3.63;2.10;;;;;;;;;;5076901;28;20433;-26
2023/07/18 02:33:49;;;;;;;1.90;1.70;;;;;;;;;;5076797;28;20082;-28
2023/07/18 02:36:16;;;;;;;4.13;2.35;;;;;;;;;;5076841;28;20039;-32
2023/07/18 02:38:42;;;;;;;3.92;2.72;;;;;;;;;;5076723;28;20035;-31
2023/07/18 02:41:08;;;;;;;3.67;1.95;;;;;;;;;;5077012;28;20044;-28
2023/07/18 02:43:34;;;;;;;4.28;1.92;;;;;;;;;;5076859;28;20044;-26
2023/07/18 02:46:00;;;;;;;5.20;1.92;;;;;;;;;;5076616;28;20025;-27
2023/07/18 02:48:26;;;;;;;7.30;2.75;;;;;;;;;;5076784;28;20448;-29
2023/07/18 02:50:52;;;;;;;2.28;1.90;;;;;;;;;;5076546;28;20017;-28
2023/07/18 02:53:18;;;;;;;4.47;2.08;;;;;;;;;;5076970;28;20040;-33
2023/07/18 02:55:44;;;;;;;2.33;1.88;;;;;;;;;;5076955;28;20047;-31
2023/07/18 02:58:11;;;;;;;3.72;2.08;;;;;;;;;;5076435;28;20024;-30
2023/07/18 03:00:37;;;;;;;2.75;1.77;;;;;;;;;;5076601;28;20425;-27
2023/07/18 03:03:03;;;;;;;3.38;2.03;;;;;;;;;;5076166;28;20033;-28
2023/07/18 03:05:33;;;;;;;3.17;2.35;;;;;;;;;;5076562;28;20426;-28
2023/07/18 03:07:59;;;;;;;3.75;2.03;;;;;;;;;;5076376;28;20032;-30
2023/07/18 03:10:25;;;;;;;7.07;2.45;;;;;;;;;;5075071;28;20024;-29
2023/07/18 03:12:51;;;;;;;4.35;2.10;;;;;;;;;;5075991;28;20037;-26
2023/07/18 03:15:19;;;;;;;4.38;1.90;;;;;;;;;;5076314;28;20039;-28
2023/07/18 03:17:46;;;;;;;3.80;1.70;;;;;;;;;;5076205;28;20042;-27
2023/07/18 03:20:19;;;;;;;2.25;1.73;;;;;;;;;;5076197;28;20028;-29
2023/07/18 03:22:48;;;;;;;3.03;2.47;;;;;;;;;;5076025;28;20104;-31
2023/07/18 03:25:16;;;;;;;4.68;2.13;;;;;;;;;;5075906;28;20025;-29
2023/07/18 03:27:43;;;;;;;4.90;2.60;;;;;;;;;;5075959;28;20021;-28
2023/07/18 03:30:11;;;;;;;2.05;1.67;;;;;;;;;;5075680;28;20032;-30
2023/07/18 03:32:38;;;;;;;2.78;2.15;;;;;;;;;;5075539;28;20052;-32
2023/07/18 03:35:06;;;;;;;5.10;2.03;;;;;;;;;;5075596;28;20440;-27
2023/07/18 03:37:32;;;;;;;2.60;2.20;;;;;;;;;;5075475;28;20517;-29
2023/07/18 03:39:59;;;;;;;3.17;2.13;;;;;;;;;;5075500;28;20461;-28
2023/07/18 03:42:25;;;;;;;2.90;2.17;;;;;;;;;;5075985;28;20399;-26
2023/07/18 03:44:51;;;;;;;3.45;2.42;;;;;;;;;;5075414;28;20016;-29
2023/07/18 03:47:17;;;;;;;2.42;2.22;;;;;;;;;;5075375;28;20020;-29
2023/07/18 03:49:43;;;;;;;4.13;2.30;;;;;;;;;;5075446;28;20024;-31
2023/07/18 03:52:09;;;;;;;3.60;2.10;;;;;;;;;;5075244;28;20447;-29
2023/07/18 03:54:35;;;;;;;2.53;2.15;;;;;;;;;;5058170;28;20124;-28
2023/07/18 03:57:01;;;;;;;2.63;2.22;;;;;;;;;;5075170;28;20423;-28
2023/07/18 03:59:28;;;;;;;5.03;2.78;;;;;;;;;;5075069;28;20413;-28
2023/07/18 04:01:54;;;;;;;3.97;2.22;;;;;;;;;;5074821;28;20025;-29
2023/07/18 04:04:20;;;;;;;5.50;2.08;;;;;;;;;;5074874;28;20190;-32
2023/07/18 04:06:47;;;;;;;2.67;1.92;;;;;;;;;;5057450;28;20024;-31
2023/07/18 04:09:14;;;;;;;5.13;1.80;;;;;;;;;;5075621;28;20078;-29
2023/07/18 04:11:41;;;;;;;3.10;2.13;;;;;;;;;;5074859;28;20531;-31
2023/07/18 04:14:07;;;;;;;2.28;1.90;;;;;;;;;;5074513;28;20110;-29
2023/07/18 04:16:34;;;;;;;3.53;2.15;;;;;;;;;;5074163;28;20020;-30
2023/07/18 04:19:00;;;;;;;2.88;1.85;;;;;;;;;;5074525;28;20086;-25
2023/07/18 04:21:26;;;;;;;3.00;2.10;;;;;;;;;;5074315;28;20085;-26
2023/07/18 04:23:52;;;;;;;4.95;2.08;;;;;;;;;;5074531;28;20050;-32
2023/07/18 04:26:18;;;;;;;3.13;2.10;;;;;;;;;;5074635;28;20024;-30
2023/07/18 04:28:44;;;;;;;2.05;1.85;;;;;;;;;;5074789;28;20039;-36
2023/07/18 04:31:11;;;;;;;3.03;2.15;;;;;;;;;;5074480;28;20028;-32
2023/07/18 04:33:38;;;;;;;4.72;2.28;;;;;;;;;;5074254;28;20021;-29
2023/07/18 04:36:04;;;;;;;2.38;1.60;;;;;;;;;;5074691;28;20467;-29
2023/07/18 04:38:31;;;;;;;4.32;2.25;;;;;;;;;;5074811;28;20086;-29
2023/07/18 04:40:59;;;;;;;2.80;2.35;;;;;;;;;;5074555;28;20024;-27
2023/07/18 04:43:25;;;;;;;4.97;2.33;;;;;;;;;;5074357;28;20029;-30
2023/07/18 04:45:51;;;;;;;3.97;2.38;;;;;;;;;;5074349;28;20039;-28
2023/07/18 04:48:18;;;;;;;3.40;1.98;;;;;;;;;;5074543;28;20104;-28
2023/07/18 04:50:45;;;;;;;5.07;1.88;;;;;;;;;;5074304;28;20021;-28
2023/07/18 04:53:12;;;;;;;2.03;1.75;;;;;;;;;;5074081;28;20447;-28
2023/07/18 04:55:38;;;;;;;4.32;1.83;;;;;;;;;;5074169;28;20086;-29
2023/07/18 04:58:06;;;;;;;2.45;2.00;;;;;;;;;;5074757;28;20039;-28
2023/07/18 05:00:32;;;;;;;2.22;1.75;;;;;;;;;;5074431;28;20374;-28
2023/07/18 05:02:59;;;;;;;4.75;1.70;;;;;;;;;;5074216;28;20029;-29
2023/07/18 05:05:29;;;;;;;4.60;2.28;;;;;;;;;;5036398;28;20037;-31
2023/07/18 05:07:56;;;;;;;2.83;1.98;;;;;;;;;;5053974;28;20025;-30
2023/07/18 05:10:22;;;;;;;4.05;2.13;;;;;;;;;;5053997;28;20013;-32
2023/07/18 05:12:57;;;;;;;3.28;2.25;;;;;;;;;;5053782;28;20036;-32
2023/07/18 05:15:24;;;;;;;2.85;1.92;;;;;;;;;;5054106;28;20464;-28
2023/07/18 05:17:50;;;;;;;3.70;1.58;;;;;;;;;;5054458;28;20025;-29
2023/07/18 05:20:17;;;;;;;4.30;1.70;;;;;;;;;;5054737;28;20036;-29
2023/07/18 05:22:44;;;;;;;4.85;2.17;;;;;;;;;;5054269;28;20112;-30
2023/07/18 05:25:11;;;;;;;1.75;1.33;;;;;;;;;;5053838;28;20033;-34
2023/07/18 05:27:38;;;;;;;2.58;2.00;;;;;;;;;;5053577;28;20068;-27
2023/07/18 05:30:06;;;;;;;2.10;1.83;;;;;;;;;;5053885;28;20356;-27
2023/07/18 05:32:32;;;;;;;5.65;2.10;;;;;;;;;;5053536;28;20104;-29
2023/07/18 05:34:59;;;;;;;3.47;1.92;;;;;;;;;;5057011;28;20029;-26
2023/07/18 05:37:26;;;;;;;2.60;1.92;;;;;;;;;;5057945;28;20025;-29
2023/07/18 05:39:52;;;;;;;3.25;1.60;;;;;;;;;;5057931;28;20398;-28
2023/07/18 05:42:18;;;;;;;3.75;1.83;;;;;;;;;;5057829;28;20028;-32
2023/07/18 05:44:44;;;;;;;3.05;2.30;;;;;;;;;;5057427;28;20040;-30
2023/07/18 05:47:11;;;;;;;3.60;1.70;;;;;;;;;;5057656;28;20448;-31
2023/07/18 05:49:37;;;;;;;5.85;2.00;;;;;;;;;;5057441;28;20078;-27
2023/07/18 05:52:03;;;;;;;6.53;2.05;;;;;;;;;;5057320;28;20475;-30
2023/07/18 05:54:30;;;;;;;2.38;1.50;;;;;;;;;;5057678;28;20033;-28
2023/07/18 05:57:00;;;;;;;4.63;1.55;;;;;;;;;;5057607;28;20337;-31
2023/07/18 05:59:27;;;;;;;3.42;2.05;;;;;;;;;;5057497;28;20336;-31
2023/07/18 06:01:53;;;;;;;2.00;1.75;;;;;;;;;;5057428;28;20055;-30
2023/07/18 06:04:19;;;;;;;6.53;1.83;;;;;;;;;;5068427;28;20052;-31
2023/07/18 06:06:46;;;;;;;4.50;1.90;;;;;;;;;;5077330;28;20433;-27
2023/07/18 06:09:14;;;;;;;4.88;1.70;;;;;;;;;;5076772;28;20036;-30
2023/07/18 06:11:40;;;;;;;8.70;3.05;;;;;;;;;;5076576;28;20135;-30
2023/07/18 06:14:06;;;;;;;6.13;1.80;;;;;;;;;;5076810;28;20363;-30
2023/07/18 06:16:33;;;;;;;2.60;1.92;;;;;;;;;;5076834;28;20147;-32
2023/07/18 06:18:59;;;;;;;7.00;2.15;;;;;;;;;;5076982;28;20052;-27
2023/07/18 06:21:26;;;;;;;4.63;2.92;;;;;;;;;;5077014;28;20059;-31
2023/07/18 06:23:55;;;;;;;7.18;2.35;;;;;;;;;;5076882;28;20040;-30
2023/07/18 06:26:22;;;;;;;8.32;2.35;;;;;;;;;;5076802;28;20074;-30
2023/07/18 06:28:48;;;;;;;5.65;2.40;;;;;;;;;;5077208;28;20040;-31
2023/07/18 06:31:15;;;;;;;9.07;1.80;;;;;;;;;;5077107;28;20087;-30
2023/07/18 06:33:42;;;;;;;3.42;2.00;;;;;;;;;;5076389;28;20028;-30
2023/07/18 06:36:08;;;;;;;4.63;1.67;;;;;;;;;;5076701;28;20065;-30
2023/07/18 06:38:34;;;;;;;7.80;1.83;;;;;;;;;;5076328;28;20028;-28
2023/07/18 06:41:00;;;;;;;9.02;3.30;;;;;;;;;;5076041;28;20379;-32
2023/07/18 06:43:27;;;;;;;6.90;2.10;;;;;;;;;;5076737;28;20390;-29
2023/07/18 06:45:54;;;;;;;8.43;2.45;;;;;;;;;;5076663;28;20048;-30
2023/07/18 06:48:20;;;;;;;2.35;1.80;;;;;;;;;;5076635;28;20027;-37
2023/07/18 06:50:50;;;;;;;5.60;2.10;;;;;;;;;;5076490;28;20059;-31
2023/07/18 06:53:17;;;;;;;7.27;2.00;;;;;;;;;;5076420;28;20048;-29
2023/07/18 06:55:44;;;;;;;6.60;2.42;;;;;;;;;;5076170;28;20475;-31
2023/07/18 06:58:10;;;;;;;7.30;3.45;;;;;;;;;;5076082;28;20440;-30
2023/07/18 07:00:37;;;;;;;12.60;2.33;;;;;;;;;;5076306;28;20024;-29
2023/07/18 07:03:03;;;;;;;5.93;1.92;;;;;;;;;;5076127;28;20028;-28
2023/07/18 07:05:29;;;;;;;4.03;2.05;;;;;;;;;;5075952;28;20032;-30
2023/07/18 07:07:55;;;;;;;6.70;2.13;;;;;;;;;;5076138;28;20029;-31
2023/07/18 07:10:22;;;;;;;9.23;2.75;;;;;;;;;;5075970;28;20096;-29
2023/07/18 07:12:48;;;;;;;5.57;1.77;;;;;;;;;;5076062;28;20021;-29
2023/07/18 07:15:14;;;;;;;8.55;2.80;;;;;;;;;;5075806;28;20027;-32
2023/07/18 07:17:41;;;;;;;6.85;2.30;;;;;;;;;;5075803;28;20043;-27
2023/07/18 07:20:12;;;;;;;5.03;2.13;;;;;;;;;;5075994;28;20036;-33
2023/07/18 07:22:38;;;;;;;5.78;2.67;;;;;;;;;;5075809;28;20475;-29
2023/07/18 07:25:05;;;;;;;6.28;2.38;;;;;;;;;;5075703;28;20021;-28
2023/07/18 07:27:31;;;;;;;10.80;2.17;;;;;;;;;;5075461;28;20021;-31
2023/07/18 07:29:57;;;;;;;8.82;2.58;;;;;;;;;;5075887;28;20016;-31
2023/07/18 07:32:23;;;;;;;4.63;2.50;;;;;;;;;;5075403;28;20036;-29
2023/07/18 07:34:49;;;;;;;4.50;2.28;;;;;;;;;;5058275;28;20025;-31
2023/07/18 07:37:15;;;;;;;8.07;2.60;;;;;;;;;;5075223;28;20032;-31
2023/07/18 07:39:42;;;;;;;8.88;2.70;;;;;;;;;;5075686;28;20021;-27
2023/07/18 07:42:08;;;;;;;12.43;2.75;;;;;;;;;;5075384;28;20028;-33
2023/07/18 07:44:34;;;;;;;5.93;2.47;;;;;;;;;;5075181;28;20028;-32
2023/07/18 07:47:00;;;;;;;4.72;2.08;;;;;;;;;;5075210;28;20081;-30
2023/07/18 07:49:26;;;;;;;7.07;1.90;;;;;;;;;;5075444;28;20078;-28
2023/07/18 07:51:52;;;;;;;6.15;3.03;;;;;;;;;;5075081;28;20021;-29
2023/07/18 07:54:18;;;;;;;5.43;2.63;;;;;;;;;;5075086;28;20092;-29
2023/07/18 07:56:45;;;;;;;3.80;1.80;;;;;;;;;;5074502;28;20043;-29
2023/07/18 07:59:11;;;;;;;10.52;2.42;;;;;;;;;;5075044;28;20024;-34
2023/07/18 08:01:37;;;;;;;12.95;2.97;;;;;;;;;;5074927;28;20025;-30
2023/07/18 08:04:03;;;;;;;6.18;2.33;;;;;;;;;;5074623;28;20106;-29
2023/07/18 08:06:29;;;;;;;6.43;1.92;;;;;;;;;;5074919;28;20066;-29
2023/07/18 08:08:55;;;;;;;3.33;2.25;;;;;;;;;;5074957;28;20099;-26
2023/07/18 08:11:22;;;;;;;13.18;2.42;;;;;;;;;;5075073;28;20044;-33
2023/07/18 08:13:48;;;;;;;14.18;3.45;;;;;;;;;;5074593;28;20024;-32
2023/07/18 08:16:14;;;;;;;8.75;2.10;;;;;;;;;;5074734;28;20413;-29
2023/07/18 08:18:41;;;;;;;3.47;2.10;;;;;;;;;;5075004;28;20082;-31
2023/07/18 08:21:07;;;;;;;4.35;1.75;;;;;;;;;;5074956;28;20410;-30
2023/07/18 08:23:33;;;;;;;16.20;3.05;;;;;;;;;;5074597;28;20360;-29
2023/07/18 08:25:59;;;;;;;6.25;2.28;;;;;;;;;;5075056;28;20447;-30
2023/07/18 08:28:25;;;;;;;7.35;2.40;;;;;;;;;;5074940;28;20035;-30
2023/07/18 08:30:52;;;;;;;4.63;2.47;;;;;;;;;;5074176;28;20024;-33
2023/07/18 08:33:19;;;;;;;9.68;2.00;;;;;;;;;;5074320;28;20141;-33
2023/07/18 08:35:46;;;;;;;9.85;2.03;;;;;;;;;;5074424;28;20021;-31
2023/07/18 08:38:13;;;;;;;3.80;1.88;;;;;;;;;;5074330;28;20043;-33
2023/07/18 08:40:43;;;;;;;12.63;2.50;;;;;;;;;;5074386;28;20094;-32
2023/07/18 08:43:14;;;;;;;9.68;2.25;;;;;;;;;;5074300;28;20079;-27
2023/07/18 08:45:40;;;;;;;6.13;2.40;;;;;;;;;;5074739;28;20101;-26
2023/07/18 08:48:06;;;;;;;5.22;2.50;;;;;;;;;;5074440;28;20074;-29
2023/07/18 08:50:34;;;;;;;5.13;2.17;;;;;;;;;;5074790;28;20024;-31
2023/07/18 08:53:00;;;;;;;16.70;3.03;;;;;;;;;;5074069;28;20021;-31
2023/07/18 08:55:29;;;;;;;8.77;2.75;;;;;;;;;;5074132;28;20333;-31
2023/07/18 08:57:55;;;;;;;5.47;1.88;;;;;;;;;;5074359;28;20039;-31
2023/07/18 09:00:22;;;;;;;8.85;2.53;;;;;;;;;;5074046;28;20112;-28
2023/07/18 09:02:48;;;;;;;7.93;2.45;;;;;;;;;;5074246;28;20419;-31
2023/07/18 09:05:37;;;;;;;4.13;2.00;;;;;;;;;;5073781;28;20384;-32
2023/07/18 09:08:05;;;;;;;6.00;2.88;;;;;;;;;;5068060;28;20074;-27
2023/07/18 09:10:31;;;;;;;8.65;2.60;;;;;;;;;;5078016;28;20466;-28
2023/07/18 09:13:02;;;;;;;12.60;2.65;;;;;;;;;;5078092;28;20024;-28
2023/07/18 09:15:28;;;;;;;8.10;2.42;;;;;;;;;;5077938;28;20029;-30
2023/07/18 09:17:55;;;;;;;8.05;3.22;;;;;;;;;;5077938;28;20039;-32
2023/07/18 09:20:21;;;;;;;9.80;2.60;;;;;;;;;;5078108;28;20483;-30
2023/07/18 09:22:48;;;;;;;11.20;2.60;;;;;;;;;;5077769;28;20032;-29
2023/07/18 09:25:15;;;;;;;11.98;2.35;;;;;;;;;;5077785;28;20039;-32
2023/07/18 09:27:41;;;;;;;11.32;2.50;;;;;;;;;;5078621;28;20432;-33
2023/07/18 09:30:08;;;;;;;13.10;3.17;;;;;;;;;;5077935;28;20024;-31
2023/07/18 09:32:34;;;;;;;13.07;2.47;;;;;;;;;;5077926;28;20347;-32
2023/07/18 09:35:00;;;;;;;14.73;3.28;;;;;;;;;;5077770;28;20020;-31
2023/07/18 09:37:27;;;;;;;4.55;2.40;;;;;;;;;;5077806;28;20032;-28
2023/07/18 09:39:54;;;;;;;5.95;2.70;;;;;;;;;;5077748;28;20043;-29
2023/07/18 09:42:20;;;;;;;7.75;2.60;;;;;;;;;;5077391;28;20075;-27
2023/07/18 09:44:50;;;;;;;4.38;2.35;;;;;;;;;;5077691;28;20032;-30
2023/07/18 09:47:17;;;;;;;13.77;2.33;;;;;;;;;;5077796;28;20406;-35
2023/07/18 09:49:44;;;;;;;7.13;2.63;;;;;;;;;;5077642;28;20052;-31
2023/07/18 09:52:10;;;;;;;7.22;2.97;;;;;;;;;;5077715;28;20028;-35
2023/07/18 09:54:38;;;;;;;5.05;2.75;;;;;;;;;;5077742;28;20047;-33
2023/07/18 09:57:07;;;;;;;7.13;2.33;;;;;;;;;;5077871;28;20032;-32
2023/07/18 09:59:37;;;;;;;15.30;2.42;;;;;;;;;;5077226;28;20047;-28
2023/07/18 10:02:06;;;;;;;7.85;2.45;;;;;;;;;;5077172;28;20037;-34
2023/07/18 10:04:32;;;;;;;7.75;2.63;;;;;;;;;;5076778;28;20057;-31
2023/07/18 10:06:59;;;;;;;7.95;2.83;;;;;;;;;;5077131;28;20032;-30
2023/07/18 10:09:27;;;;;;;12.38;2.22;;;;;;;;;;5077349;28;20020;-31
2023/07/18 10:12:00;;;;;;;14.77;2.75;;;;;;;;;;5077139;28;20037;-31
2023/07/18 10:14:45;;;;;;;7.88;2.53;;;;;;;;;;5077275;28;20013;-29
2023/07/18 10:17:24;;;;;;;11.88;1.92;;;;;;;;;;5077690;28;20102;-36
2023/07/18 10:19:50;;;;;;;9.63;2.83;;;;;;;;;;5076517;28;20166;-27
2023/07/18 10:22:30;;;;;;;13.70;2.95;;;;;;;;;;5076838;28;20108;-30
2023/07/18 10:25:14;;;;;;;7.90;2.38;;;;;;;;;;5076534;28;20060;-31
2023/07/18 10:27:43;;;;;;;11.98;2.30;;;;;;;;;;5076468;28;20024;-33
2023/07/18 10:30:13;;;;;;;13.57;4.22;;;;;;;;;;5076394;28;20028;-27
2023/07/18 10:32:41;;;;;;;6.65;2.38;;;;;;;;;;5076372;28;20170;-30
2023/07/18 10:35:14;;;;;;;6.15;2.05;;;;;;;;;;5076643;28;20099;-28
2023/07/18 10:37:51;;;;;;;9.20;2.20;;;;;;;;;;5076630;28;20027;-26
2023/07/18 10:40:39;;;;;;;3.97;2.15;;;;;;;;;;5076584;28;20031;-33
2023/07/18 10:43:08;;;;;;;8.90;2.20;;;;;;;;;;5076740;28;20024;-27
2023/07/18 10:45:38;;;;;;;11.77;3.40;;;;;;;;;;5076630;28;20016;-31
2023/07/18 10:48:19;;;;;;;9.02;2.47;;;;;;;;;;5076257;28;20120;-34
2023/07/18 10:50:46;;;;;;;9.32;2.38;;;;;;;;;;5076128;28;20103;-29
2023/07/18 10:53:17;;;;;;;7.90;2.50;;;;;;;;;;5076147;28;20090;-29
2023/07/18 10:55:46;;;;;;;9.40;2.95;;;;;;;;;;5076082;28;20013;-30
2023/07/18 10:58:21;;;;;;;9.48;2.15;;;;;;;;;;5076044;28;20052;-30
2023/07/18 11:00:48;;;;;;;5.00;2.75;;;;;;;;;;5075975;28;20392;-32
2023/07/18 11:03:23;;;;;;;9.15;3.13;;;;;;;;;;5075618;28;20506;-30
2023/07/18 11:05:50;;;;;;;9.68;2.03;;;;;;;;;;5076135;28;20122;-30
2023/07/18 11:08:25;;;;;;;10.43;2.60;;;;;;;;;;5076512;28;20029;-33
2023/07/18 11:10:59;;;;;;;13.45;3.58;;;;;;;;;;5076602;28;20039;-30
2023/07/18 11:13:32;;;;;;;12.27;5.63;;;;;;;;;;5075880;28;20024;-32
2023/07/18 11:16:05;;;;;;;6.10;2.50;;;;;;;;;;5077004;28;20028;-31
2023/07/18 11:18:35;;;;;;;12.32;2.20;;;;;;;;;;5076174;28;20028;-29
2023/07/18 11:21:03;;;;;;;7.30;2.13;;;;;;;;;;5075890;28;20036;-31
2023/07/18 11:23:30;;;;;;;9.88;3.55;;;;;;;;;;5075654;28;20037;-32
2023/07/18 11:25:56;;;;;;;12.95;2.83;;;;;;;;;;5058057;28;20439;-30
2023/07/18 11:28:22;;;;;;;9.45;3.47;;;;;;;;;;5075959;28;20035;-31
2023/07/18 11:30:48;;;;;;;14.75;3.65;;;;;;;;;;5057022;28;20025;-27
2023/07/18 11:33:14;;;;;;;11.23;3.03;;;;;;;;;;5075359;28;20100;-29
2023/07/18 11:35:47;;;;;;;12.85;5.05;;;;;;;;;;5075321;28;20531;-27
2023/07/18 11:38:17;;;;;;;7.50;2.33;;;;;;;;;;5075654;28;20392;-29
2023/07/18 11:40:43;;;;;;;13.70;2.65;;;;;;;;;;5075328;28;20516;-30
2023/07/18 11:43:17;;;;;;;10.90;3.10;;;;;;;;;;5075239;28;20032;-30
2023/07/18 11:45:43;;;;;;;7.72;3.63;;;;;;;;;;5075169;28;20093;-28
2023/07/18 11:48:10;;;;;;;12.30;3.03;;;;;;;;;;5075421;28;20032;-32
2023/07/18 11:50:36;;;;;;;5.03;2.45;;;;;;;;;;5075139;28;20021;-35
2023/07/18 11:53:03;;;;;;;10.27;2.38;;;;;;;;;;5075053;28;20024;-34
2023/07/18 11:55:33;;;;;;;11.18;2.85;;;;;;;;;;5075015;28;20371;-31
2023/07/18 11:57:59;;;;;;;8.90;2.77;;;;;;;;;;5075014;28;20055;-27
2023/07/18 12:00:26;;;;;;;11.07;2.30;;;;;;;;;;5075350;28;20068;-29
2023/07/18 12:02:52;;;;;;;6.68;2.70;;;;;;;;;;5075017;28;20052;-28
2023/07/18 12:05:18;;;;;;;9.15;2.47;;;;;;;;;;5074790;28;20071;-39
2023/07/18 12:07:45;;;;;;;6.15;2.25;;;;;;;;;;5074724;28;20317;-33
2023/07/18 12:10:11;;;;;;;7.68;2.28;;;;;;;;;;5075036;28;20415;-33
2023/07/18 12:12:39;;;;;;;7.50;2.60;;;;;;;;;;5074918;28;20028;-31
2023/07/18 12:15:08;;;;;;;15.07;2.97;;;;;;;;;;5075001;28;20046;-35
2023/07/18 12:17:34;;;;;;;7.63;2.58;;;;;;;;;;5075134;28;20020;-27
2023/07/18 12:20:00;;;;;;;19.83;3.17;;;;;;;;;;5074688;28;20095;-34
2023/07/18 12:22:27;;;;;;;6.75;2.92;;;;;;;;;;5074778;28;20561;-32
2023/07/18 12:24:53;;;;;;;10.57;2.78;;;;;;;;;;5074928;28;20109;-31
2023/07/18 12:27:19;;;;;;;12.93;2.60;;;;;;;;;;5075099;28;20408;-30
2023/07/18 12:29:45;;;;;;;11.27;2.30;;;;;;;;;;5074460;28;20097;-30
2023/07/18 12:32:12;;;;;;;8.07;2.28;;;;;;;;;;5074428;28;20095;-27
2023/07/18 12:34:39;;;;;;;12.75;2.80;;;;;;;;;;5074461;28;20016;-30
2023/07/18 12:37:05;;;;;;;8.15;1.98;;;;;;;;;;5074380;28;20155;-29
2023/07/18 12:39:31;;;;;;;6.90;2.70;;;;;;;;;;5074397;28;20035;-30
2023/07/18 12:41:58;;;;;;;13.75;2.67;;;;;;;;;;5073981;28;20099;-30
2023/07/18 12:44:36;;;;;;;10.75;2.67;;;;;;;;;;5074281;28;20034;-32
2023/07/18 12:47:02;;;;;;;8.15;2.40;;;;;;;;;;5074590;28;20028;-29
2023/07/18 12:49:29;;;;;;;12.73;2.70;;;;;;;;;;5074090;28;20016;-31
2023/07/18 12:51:55;;;;;;;6.93;2.10;;;;;;;;;;5074506;28;20025;-30
2023/07/18 12:54:21;;;;;;;6.47;2.00;;;;;;;;;;5074312;28;20036;-31
2023/07/18 12:56:47;;;;;;;7.88;3.05;;;;;;;;;;5074523;28;20401;-30
2023/07/18 12:59:13;;;;;;;8.75;2.40;;;;;;;;;;5074757;28;20033;-27
2023/07/18 13:01:39;;;;;;;8.80;3.00;;;;;;;;;;5074811;28;20028;-26
2023/07/18 13:04:06;;;;;;;8.63;2.10;;;;;;;;;;5074004;28;20045;-27
2023/07/18 13:06:32;;;;;;;7.32;3.00;;;;;;;;;;5074324;28;20036;-29
2023/07/18 13:08:58;;;;;;;9.27;2.63;;;;;;;;;;5074198;28;20021;-29
2023/07/18 13:11:24;;;;;;;8.98;2.97;;;;;;;;;;5074433;28;20021;-29
2023/07/18 13:13:51;;;;;;;13.50;3.40;;;;;;;;;;5074123;28;20367;-28
2023/07/18 13:16:17;;;;;;;15.55;2.55;;;;;;;;;;5074066;28;20039;-27
2023/07/18 13:18:43;;;;;;;8.35;3.05;;;;;;;;;;5074657;28;20031;-32
2023/07/18 13:21:09;;;;;;;7.95;2.65;;;;;;;;;;5074012;28;20490;-28
2023/07/18 13:23:35;;;;;;;13.15;2.67;;;;;;;;;;5073955;28;20108;-29
2023/07/18 13:26:02;;;;;;;6.80;2.30;;;;;;;;;;5074063;28;20024;-33
2023/07/18 13:28:28;;;;;;;14.95;2.88;;;;;;;;;;5073976;28;20090;-30
2023/07/18 13:30:54;;;;;;;10.52;2.85;;;;;;;;;;5073869;28;20020;-28
2023/07/18 13:33:21;;;;;;;9.68;3.28;;;;;;;;;;5074125;28;20039;-29
2023/07/18 13:35:47;;;;;;;7.57;2.72;;;;;;;;;;5074413;28;20114;-31
2023/07/18 13:38:13;;;;;;;10.20;2.58;;;;;;;;;;5073875;28;20108;-32
2023/07/18 13:40:39;;;;;;;4.82;3.08;;;;;;;;;;5073741;28;20020;-27
2023/07/18 13:43:05;;;;;;;11.05;2.30;;;;;;;;;;5073836;28;20024;-29
2023/07/18 13:45:31;;;;;;;7.70;2.97;;;;;;;;;;5073740;28;20028;-28
2023/07/18 13:47:57;;;;;;;14.88;3.35;;;;;;;;;;5073918;28;20020;-27
2023/07/18 13:50:24;;;;;;;11.55;2.70;;;;;;;;;;5073915;28;20098;-26
2023/07/18 13:52:51;;;;;;;7.25;3.33;;;;;;;;;;5056617;28;20033;-31
2023/07/18 13:55:18;;;;;;;6.85;2.55;;;;;;;;;;5076193;28;20020;-31
2023/07/18 13:57:44;;;;;;;10.82;3.28;;;;;;;;;;5077527;28;20017;-32
2023/07/18 14:00:10;;;;;;;10.00;2.70;;;;;;;;;;5077330;28;20505;-33
2023/07/18 14:02:37;;;;;;;9.15;2.58;;;;;;;;;;5077421;28;20028;-33
2023/07/18 14:05:05;;;;;;;12.57;3.53;;;;;;;;;;5077099;28;20051;-30
2023/07/18 14:07:32;;;;;;;12.70;3.25;;;;;;;;;;5077026;28;20028;-31
2023/07/18 14:09:58;;;;;;;9.27;2.53;;;;;;;;;;5077150;28;20029;-29
2023/07/18 14:12:24;;;;;;;6.00;1.90;;;;;;;;;;5076962;28;20028;-26
2023/07/18 14:14:50;;;;;;;7.72;2.42;;;;;;;;;;5077290;28;20048;-30
2023/07/18 14:17:17;;;;;;;11.27;2.13;;;;;;;;;;5077005;28;20096;-32
2023/07/18 14:19:43;;;;;;;5.97;2.20;;;;;;;;;;5077514;28;20025;-29
2023/07/18 14:22:11;;;;;;;11.32;2.05;;;;;;;;;;5076957;28;20039;-31
2023/07/18 14:24:37;;;;;;;7.10;2.55;;;;;;;;;;5076736;28;20056;-28
2023/07/18 14:27:03;;;;;;;11.20;3.88;;;;;;;;;;5076954;28;20048;-33
2023/07/18 14:29:31;;;;;;;8.65;3.00;;;;;;;;;;5077212;28;20553;-30
2023/07/18 14:31:58;;;;;;;14.93;3.42;;;;;;;;;;5076663;28;20053;-30
2023/07/18 14:34:24;;;;;;;12.50;2.47;;;;;;;;;;5077151;28;20348;-33
2023/07/18 14:36:50;;;;;;;8.45;2.38;;;;;;;;;;5076764;28;20471;-32
2023/07/18 14:39:16;;;;;;;14.52;3.70;;;;;;;;;;5077004;28;20029;-27
2023/07/18 14:41:43;;;;;;;7.43;2.70;;;;;;;;;;5076802;28;20368;-27